sensor_id;sensor_type;location;lat;lon;timestamp;P1;durP1;ratioP1;P2;durP2;ratioP2
47589;SDS011;33316;52.298;9.056;2022-11-11T00:02:15;1.63;;;0.90;;
47589;SDS011;33316;52.298;9.056;2022-11-11T00:04:42;1.25;;;0.80;;
47589;SDS011;33316;52.298;9.056;2022-11-11T00:07:09;2.53;;;0.88;;
47589;SDS011;33316;52.298;9.056;2022-11-11T00:09:35;2.53;;;0.77;;
47589;SDS011;33316;52.298;9.056;2022-11-11T00:12:02;2.53;;;0.85;;
47589;SDS011;33316;52.298;9.056;2022-11-11T00:14:29;3.30;;;0.90;;
47589;SDS011;33316;52.298;9.056;2022-11-11T00:16:56;3.83;;;0.80;;
47589;SDS011;33316;52.298;9.056;2022-11-11T00:19:42;1.70;;;0.68;;
47589;SDS011;33316;52.298;9.056;2022-11-11T00:22:26;2.00;;;0.60;;
47589;SDS011;33316;52.298;9.056;2022-11-11T00:25:15;1.98;;;0.80;;
47589;SDS011;33316;52.298;9.056;2022-11-11T00:27:43;2.90;;;0.95;;
47589;SDS011;33316;52.298;9.056;2022-11-11T00:30:09;1.30;;;0.75;;
47589;SDS011;33316;52.298;9.056;2022-11-11T00:32:36;2.17;;;0.85;;
47589;SDS011;33316;52.298;9.056;2022-11-11T00:35:05;3.38;;;0.80;;
47589;SDS011;33316;52.298;9.056;2022-11-11T00:37:49;2.25;;;0.65;;
47589;SDS011;33316;52.298;9.056;2022-11-11T00:40:16;2.42;;;1.02;;
47589;SDS011;33316;52.298;9.056;2022-11-11T00:42:43;2.83;;;0.70;;
47589;SDS011;33316;52.298;9.056;2022-11-11T00:45:10;3.28;;;0.90;;
47589;SDS011;33316;52.298;9.056;2022-11-11T00:47:37;3.88;;;0.95;;
47589;SDS011;33316;52.298;9.056;2022-11-11T00:50:24;4.15;;;1.05;;
47589;SDS011;33316;52.298;9.056;2022-11-11T00:53:10;2.97;;;0.90;;
47589;SDS011;33316;52.298;9.056;2022-11-11T00:55:37;1.80;;;0.82;;
47589;SDS011;33316;52.298;9.056;2022-11-11T00:58:05;2.33;;;0.80;;
47589;SDS011;33316;52.298;9.056;2022-11-11T01:00:32;1.48;;;0.73;;
47589;SDS011;33316;52.298;9.056;2022-11-11T01:02:58;1.27;;;0.80;;
47589;SDS011;33316;52.298;9.056;2022-11-11T01:05:27;1.63;;;0.70;;
47589;SDS011;33316;52.298;9.056;2022-11-11T01:07:53;1.73;;;0.90;;
47589;SDS011;33316;52.298;9.056;2022-11-11T01:10:21;2.17;;;0.70;;
47589;SDS011;33316;52.298;9.056;2022-11-11T01:13:04;2.85;;;0.70;;
47589;SDS011;33316;52.298;9.056;2022-11-11T01:15:37;1.50;;;0.77;;
47589;SDS011;33316;52.298;9.056;2022-11-11T01:18:05;2.40;;;1.10;;
47589;SDS011;33316;52.298;9.056;2022-11-11T01:20:34;1.23;;;0.80;;
47589;SDS011;33316;52.298;9.056;2022-11-11T01:23:01;2.05;;;0.70;;
47589;SDS011;33316;52.298;9.056;2022-11-11T01:25:31;3.30;;;1.05;;
47589;SDS011;33316;52.298;9.056;2022-11-11T01:27:59;1.40;;;0.80;;
47589;SDS011;33316;52.298;9.056;2022-11-11T01:30:25;2.92;;;0.80;;
47589;SDS011;33316;52.298;9.056;2022-11-11T01:32:52;1.20;;;0.70;;
47589;SDS011;33316;52.298;9.056;2022-11-11T01:35:19;3.38;;;0.93;;
47589;SDS011;33316;52.298;9.056;2022-11-11T01:37:47;2.72;;;0.90;;
47589;SDS011;33316;52.298;9.056;2022-11-11T01:40:14;1.38;;;0.80;;
47589;SDS011;33316;52.298;9.056;2022-11-11T01:42:45;3.60;;;0.90;;
47589;SDS011;33316;52.298;9.056;2022-11-11T01:47:57;1.25;;;0.52;;
47589;SDS011;33316;52.298;9.056;2022-11-11T01:50:56;1.65;;;0.75;;
47589;SDS011;33316;52.298;9.056;2022-11-11T01:53:25;2.10;;;0.82;;
47589;SDS011;33316;52.298;9.056;2022-11-11T01:55:52;1.67;;;0.63;;
47589;SDS011;33316;52.298;9.056;2022-11-11T01:58:19;2.17;;;0.60;;
47589;SDS011;33316;52.298;9.056;2022-11-11T02:00:46;3.08;;;1.00;;
47589;SDS011;33316;52.298;9.056;2022-11-11T02:03:13;1.10;;;0.60;;
47589;SDS011;33316;52.298;9.056;2022-11-11T02:05:40;2.22;;;0.77;;
47589;SDS011;33316;52.298;9.056;2022-11-11T02:08:07;1.67;;;0.65;;
47589;SDS011;33316;52.298;9.056;2022-11-11T02:10:38;1.87;;;0.77;;
47589;SDS011;33316;52.298;9.056;2022-11-11T02:13:09;3.47;;;1.00;;
47589;SDS011;33316;52.298;9.056;2022-11-11T02:15:57;1.27;;;0.68;;
47589;SDS011;33316;52.298;9.056;2022-11-11T02:18:24;2.80;;;0.85;;
47589;SDS011;33316;52.298;9.056;2022-11-11T02:20:52;1.02;;;0.75;;
47589;SDS011;33316;52.298;9.056;2022-11-11T02:23:21;2.38;;;0.70;;
47589;SDS011;33316;52.298;9.056;2022-11-11T02:25:54;1.30;;;0.65;;
47589;SDS011;33316;52.298;9.056;2022-11-11T02:28:22;2.17;;;0.82;;
47589;SDS011;33316;52.298;9.056;2022-11-11T02:30:53;2.22;;;0.80;;
47589;SDS011;33316;52.298;9.056;2022-11-11T02:33:20;3.40;;;0.90;;
47589;SDS011;33316;52.298;9.056;2022-11-11T02:35:47;1.33;;;0.70;;
47589;SDS011;33316;52.298;9.056;2022-11-11T02:38:20;2.83;;;0.70;;
47589;SDS011;33316;52.298;9.056;2022-11-11T02:40:48;2.05;;;0.80;;
47589;SDS011;33316;52.298;9.056;2022-11-11T02:43:31;1.95;;;0.90;;
47589;SDS011;33316;52.298;9.056;2022-11-11T02:45:59;2.22;;;0.70;;
47589;SDS011;33316;52.298;9.056;2022-11-11T02:48:27;2.28;;;0.73;;
47589;SDS011;33316;52.298;9.056;2022-11-11T02:50:54;2.38;;;0.88;;
47589;SDS011;33316;52.298;9.056;2022-11-11T02:53:21;1.88;;;0.70;;
47589;SDS011;33316;52.298;9.056;2022-11-11T02:55:48;1.90;;;0.77;;
47589;SDS011;33316;52.298;9.056;2022-11-11T02:58:15;1.25;;;0.77;;
47589;SDS011;33316;52.298;9.056;2022-11-11T03:00:43;3.28;;;0.70;;
47589;SDS011;33316;52.298;9.056;2022-11-11T03:03:10;2.13;;;0.73;;
47589;SDS011;33316;52.298;9.056;2022-11-11T03:05:37;2.58;;;0.90;;
47589;SDS011;33316;52.298;9.056;2022-11-11T03:08:04;2.08;;;0.90;;
47589;SDS011;33316;52.298;9.056;2022-11-11T03:10:31;3.30;;;0.88;;
47589;SDS011;33316;52.298;9.056;2022-11-11T03:12:58;2.33;;;0.90;;
47589;SDS011;33316;52.298;9.056;2022-11-11T03:15:24;1.98;;;0.82;;
47589;SDS011;33316;52.298;9.056;2022-11-11T03:17:52;2.28;;;1.08;;
47589;SDS011;33316;52.298;9.056;2022-11-11T03:20:18;1.45;;;0.80;;
47589;SDS011;33316;52.298;9.056;2022-11-11T03:23:04;3.17;;;1.00;;
47589;SDS011;33316;52.298;9.056;2022-11-11T03:25:32;1.55;;;0.80;;
47589;SDS011;33316;52.298;9.056;2022-11-11T03:28:05;2.35;;;0.90;;
47589;SDS011;33316;52.298;9.056;2022-11-11T03:30:33;2.10;;;0.65;;
47589;SDS011;33316;52.298;9.056;2022-11-11T03:33:02;1.30;;;0.70;;
47589;SDS011;33316;52.298;9.056;2022-11-11T03:35:29;2.38;;;0.82;;
47589;SDS011;33316;52.298;9.056;2022-11-11T03:37:56;1.90;;;0.70;;
47589;SDS011;33316;52.298;9.056;2022-11-11T03:40:40;1.88;;;0.70;;
47589;SDS011;33316;52.298;9.056;2022-11-11T03:43:07;1.55;;;0.73;;
47589;SDS011;33316;52.298;9.056;2022-11-11T03:45:34;1.60;;;0.77;;
47589;SDS011;33316;52.298;9.056;2022-11-11T03:48:02;2.70;;;0.98;;
47589;SDS011;33316;52.298;9.056;2022-11-11T03:50:29;1.50;;;0.63;;
47589;SDS011;33316;52.298;9.056;2022-11-11T03:52:56;2.55;;;0.90;;
47589;SDS011;33316;52.298;9.056;2022-11-11T03:55:23;1.00;;;0.60;;
47589;SDS011;33316;52.298;9.056;2022-11-11T03:57:50;1.77;;;0.73;;
47589;SDS011;33316;52.298;9.056;2022-11-11T04:00:18;1.33;;;0.70;;
47589;SDS011;33316;52.298;9.056;2022-11-11T04:02:45;2.05;;;0.77;;
47589;SDS011;33316;52.298;9.056;2022-11-11T04:05:32;2.95;;;0.90;;
47589;SDS011;33316;52.298;9.056;2022-11-11T04:08:16;2.63;;;0.85;;
47589;SDS011;33316;52.298;9.056;2022-11-11T04:11:02;2.92;;;0.77;;
47589;SDS011;33316;52.298;9.056;2022-11-11T04:13:32;2.00;;;0.70;;
47589;SDS011;33316;52.298;9.056;2022-11-11T04:16:16;2.40;;;0.60;;
47589;SDS011;33316;52.298;9.056;2022-11-11T04:18:43;1.60;;;0.47;;
47589;SDS011;33316;52.298;9.056;2022-11-11T04:21:29;4.22;;;1.00;;
47589;SDS011;33316;52.298;9.056;2022-11-11T04:24:11;3.08;;;1.00;;
47589;SDS011;33316;52.298;9.056;2022-11-11T04:26:57;4.20;;;0.75;;
47589;SDS011;33316;52.298;9.056;2022-11-11T04:29:24;1.58;;;0.98;;
47589;SDS011;33316;52.298;9.056;2022-11-11T04:31:54;0.77;;;0.60;;
47589;SDS011;33316;52.298;9.056;2022-11-11T04:34:39;2.20;;;0.63;;
47589;SDS011;33316;52.298;9.056;2022-11-11T04:37:07;1.60;;;0.68;;
47589;SDS011;33316;52.298;9.056;2022-11-11T04:39:33;2.55;;;0.80;;
47589;SDS011;33316;52.298;9.056;2022-11-11T04:42:18;2.28;;;0.75;;
47589;SDS011;33316;52.298;9.056;2022-11-11T04:44:44;1.65;;;0.80;;
47589;SDS011;33316;52.298;9.056;2022-11-11T04:47:29;2.20;;;1.00;;
47589;SDS011;33316;52.298;9.056;2022-11-11T04:49:55;1.63;;;0.68;;
47589;SDS011;33316;52.298;9.056;2022-11-11T04:52:23;1.98;;;0.77;;
47589;SDS011;33316;52.298;9.056;2022-11-11T04:57:38;0.70;;;0.50;;
47589;SDS011;33316;52.298;9.056;2022-11-11T05:00:06;1.10;;;0.63;;
47589;SDS011;33316;52.298;9.056;2022-11-11T05:02:34;2.47;;;0.82;;
47589;SDS011;33316;52.298;9.056;2022-11-11T05:05:18;2.83;;;0.70;;
47589;SDS011;33316;52.298;9.056;2022-11-11T05:07:46;1.63;;;1.00;;
47589;SDS011;33316;52.298;9.056;2022-11-11T05:10:31;2.30;;;0.73;;
47589;SDS011;33316;52.298;9.056;2022-11-11T05:12:57;0.93;;;0.70;;
47589;SDS011;33316;52.298;9.056;2022-11-11T05:15:38;2.40;;;0.77;;
47589;SDS011;33316;52.298;9.056;2022-11-11T05:18:22;0.88;;;0.60;;
47589;SDS011;33316;52.298;9.056;2022-11-11T05:21:08;2.42;;;0.60;;
47589;SDS011;33316;52.298;9.056;2022-11-11T05:23:48;1.73;;;0.68;;
47589;SDS011;33316;52.298;9.056;2022-11-11T05:26:31;0.90;;;0.55;;
47589;SDS011;33316;52.298;9.056;2022-11-11T05:28:58;3.67;;;0.60;;
47589;SDS011;33316;52.298;9.056;2022-11-11T05:31:25;2.85;;;0.82;;
47589;SDS011;33316;52.298;9.056;2022-11-11T05:33:52;4.32;;;0.70;;
47589;SDS011;33316;52.298;9.056;2022-11-11T05:36:19;2.70;;;0.85;;
47589;SDS011;33316;52.298;9.056;2022-11-11T05:38:45;2.00;;;0.80;;
47589;SDS011;33316;52.298;9.056;2022-11-11T05:41:13;1.40;;;0.60;;
47589;SDS011;33316;52.298;9.056;2022-11-11T05:43:40;1.88;;;0.57;;
47589;SDS011;33316;52.298;9.056;2022-11-11T05:46:07;2.80;;;0.77;;
47589;SDS011;33316;52.298;9.056;2022-11-11T05:48:33;1.65;;;0.80;;
47589;SDS011;33316;52.298;9.056;2022-11-11T05:51:20;1.92;;;0.70;;
47589;SDS011;33316;52.298;9.056;2022-11-11T05:53:53;1.55;;;0.65;;
47589;SDS011;33316;52.298;9.056;2022-11-11T05:56:20;1.77;;;0.55;;
47589;SDS011;33316;52.298;9.056;2022-11-11T05:58:47;1.50;;;0.60;;
47589;SDS011;33316;52.298;9.056;2022-11-11T06:01:14;2.20;;;0.80;;
47589;SDS011;33316;52.298;9.056;2022-11-11T06:03:41;2.10;;;0.88;;
47589;SDS011;33316;52.298;9.056;2022-11-11T06:06:07;1.75;;;0.80;;
47589;SDS011;33316;52.298;9.056;2022-11-11T06:08:34;1.65;;;0.90;;
47589;SDS011;33316;52.298;9.056;2022-11-11T06:11:02;2.78;;;0.90;;
47589;SDS011;33316;52.298;9.056;2022-11-11T06:13:29;1.42;;;0.80;;
47589;SDS011;33316;52.298;9.056;2022-11-11T06:15:56;1.92;;;0.85;;
47589;SDS011;33316;52.298;9.056;2022-11-11T06:18:23;1.67;;;0.90;;
47589;SDS011;33316;52.298;9.056;2022-11-11T06:20:51;3.50;;;0.88;;
47589;SDS011;33316;52.298;9.056;2022-11-11T06:23:18;1.67;;;0.65;;
47589;SDS011;33316;52.298;9.056;2022-11-11T06:25:45;1.20;;;0.70;;
47589;SDS011;33316;52.298;9.056;2022-11-11T06:28:30;1.48;;;0.60;;
47589;SDS011;33316;52.298;9.056;2022-11-11T06:30:57;2.00;;;0.70;;
47589;SDS011;33316;52.298;9.056;2022-11-11T06:33:24;1.38;;;0.60;;
47589;SDS011;33316;52.298;9.056;2022-11-11T06:35:51;2.10;;;0.75;;
47589;SDS011;33316;52.298;9.056;2022-11-11T06:38:18;2.17;;;0.82;;
47589;SDS011;33316;52.298;9.056;2022-11-11T06:40:45;2.13;;;0.70;;
47589;SDS011;33316;52.298;9.056;2022-11-11T06:43:12;1.85;;;0.60;;
47589;SDS011;33316;52.298;9.056;2022-11-11T06:45:40;2.22;;;0.88;;
47589;SDS011;33316;52.298;9.056;2022-11-11T06:48:07;1.73;;;0.70;;
47589;SDS011;33316;52.298;9.056;2022-11-11T06:50:34;1.88;;;0.68;;
47589;SDS011;33316;52.298;9.056;2022-11-11T06:53:04;1.80;;;0.88;;
47589;SDS011;33316;52.298;9.056;2022-11-11T06:55:32;1.48;;;0.70;;
47589;SDS011;33316;52.298;9.056;2022-11-11T06:58:05;3.25;;;0.73;;
47589;SDS011;33316;52.298;9.056;2022-11-11T07:00:32;1.58;;;0.68;;
47589;SDS011;33316;52.298;9.056;2022-11-11T07:03:01;1.75;;;0.60;;
47589;SDS011;33316;52.298;9.056;2022-11-11T07:05:27;1.92;;;0.73;;
47589;SDS011;33316;52.298;9.056;2022-11-11T07:07:54;2.53;;;0.93;;
47589;SDS011;33316;52.298;9.056;2022-11-11T07:10:21;1.05;;;0.50;;
47589;SDS011;33316;52.298;9.056;2022-11-11T07:12:48;2.78;;;0.60;;
47589;SDS011;33316;52.298;9.056;2022-11-11T07:15:15;0.73;;;0.60;;
47589;SDS011;33316;52.298;9.056;2022-11-11T07:17:42;1.95;;;0.60;;
47589;SDS011;33316;52.298;9.056;2022-11-11T07:20:10;0.90;;;0.60;;
47589;SDS011;33316;52.298;9.056;2022-11-11T07:22:37;2.83;;;0.60;;
47589;SDS011;33316;52.298;9.056;2022-11-11T07:25:04;0.93;;;0.50;;
47589;SDS011;33316;52.298;9.056;2022-11-11T07:27:35;2.00;;;0.73;;
47589;SDS011;33316;52.298;9.056;2022-11-11T07:30:02;2.28;;;0.50;;
47589;SDS011;33316;52.298;9.056;2022-11-11T07:32:30;1.75;;;0.60;;
47589;SDS011;33316;52.298;9.056;2022-11-11T07:34:57;2.17;;;0.60;;
47589;SDS011;33316;52.298;9.056;2022-11-11T07:37:25;2.17;;;0.73;;
47589;SDS011;33316;52.298;9.056;2022-11-11T07:39:52;3.17;;;0.60;;
47589;SDS011;33316;52.298;9.056;2022-11-11T07:42:19;3.13;;;0.77;;
47589;SDS011;33316;52.298;9.056;2022-11-11T07:44:45;1.70;;;0.80;;
47589;SDS011;33316;52.298;9.056;2022-11-11T07:47:12;3.45;;;0.80;;
47589;SDS011;33316;52.298;9.056;2022-11-11T07:49:39;2.38;;;0.60;;
47589;SDS011;33316;52.298;9.056;2022-11-11T07:52:06;1.67;;;0.60;;
47589;SDS011;33316;52.298;9.056;2022-11-11T07:54:34;2.28;;;0.80;;
47589;SDS011;33316;52.298;9.056;2022-11-11T07:57:00;2.28;;;0.50;;
47589;SDS011;33316;52.298;9.056;2022-11-11T07:59:27;3.78;;;0.90;;
47589;SDS011;33316;52.298;9.056;2022-11-11T08:01:54;2.78;;;0.80;;
47589;SDS011;33316;52.298;9.056;2022-11-11T08:04:20;1.55;;;0.60;;
47589;SDS011;33316;52.298;9.056;2022-11-11T08:06:47;1.75;;;0.70;;
47589;SDS011;33316;52.298;9.056;2022-11-11T08:09:14;1.70;;;0.50;;
47589;SDS011;33316;52.298;9.056;2022-11-11T08:11:42;1.10;;;0.52;;
47589;SDS011;33316;52.298;9.056;2022-11-11T08:14:26;2.28;;;0.40;;
47589;SDS011;33316;52.298;9.056;2022-11-11T08:16:53;1.17;;;0.60;;
47589;SDS011;33316;52.298;9.056;2022-11-11T08:19:19;2.28;;;0.52;;
47589;SDS011;33316;52.298;9.056;2022-11-11T08:21:46;2.30;;;0.57;;
47589;SDS011;33316;52.298;9.056;2022-11-11T08:24:13;2.13;;;0.70;;
47589;SDS011;33316;52.298;9.056;2022-11-11T08:26:41;1.08;;;0.60;;
47589;SDS011;33316;52.298;9.056;2022-11-11T08:29:08;1.80;;;0.70;;
47589;SDS011;33316;52.298;9.056;2022-11-11T08:31:35;3.50;;;1.10;;
47589;SDS011;33316;52.298;9.056;2022-11-11T08:34:03;0.88;;;0.50;;
47589;SDS011;33316;52.298;9.056;2022-11-11T08:36:30;2.25;;;0.57;;
47589;SDS011;33316;52.298;9.056;2022-11-11T08:38:57;1.02;;;0.50;;
47589;SDS011;33316;52.298;9.056;2022-11-11T08:41:24;1.98;;;0.60;;
47589;SDS011;33316;52.298;9.056;2022-11-11T08:43:52;1.83;;;0.50;;
47589;SDS011;33316;52.298;9.056;2022-11-11T08:46:20;1.15;;;0.60;;
47589;SDS011;33316;52.298;9.056;2022-11-11T08:48:47;0.73;;;0.50;;
47589;SDS011;33316;52.298;9.056;2022-11-11T08:51:14;2.25;;;0.65;;
47589;SDS011;33316;52.298;9.056;2022-11-11T08:53:42;1.02;;;0.50;;
47589;SDS011;33316;52.298;9.056;2022-11-11T08:56:08;3.97;;;0.60;;
47589;SDS011;33316;52.298;9.056;2022-11-11T08:58:36;3.20;;;0.70;;
47589;SDS011;33316;52.298;9.056;2022-11-11T09:01:08;2.55;;;0.65;;
47589;SDS011;33316;52.298;9.056;2022-11-11T09:03:37;2.83;;;0.70;;
47589;SDS011;33316;52.298;9.056;2022-11-11T09:06:07;0.82;;;0.40;;
47589;SDS011;33316;52.298;9.056;2022-11-11T09:08:34;0.95;;;0.52;;
47589;SDS011;33316;52.298;9.056;2022-11-11T09:11:00;2.58;;;0.75;;
47589;SDS011;33316;52.298;9.056;2022-11-11T09:13:27;2.13;;;0.80;;
47589;SDS011;33316;52.298;9.056;2022-11-11T09:15:54;1.80;;;0.63;;
47589;SDS011;33316;52.298;9.056;2022-11-11T09:18:23;1.70;;;0.50;;
47589;SDS011;33316;52.298;9.056;2022-11-11T09:20:50;1.17;;;0.47;;
47589;SDS011;33316;52.298;9.056;2022-11-11T09:23:17;1.85;;;0.68;;
47589;SDS011;33316;52.298;9.056;2022-11-11T09:25:43;1.73;;;0.55;;
47589;SDS011;33316;52.298;9.056;2022-11-11T09:28:10;3.20;;;0.70;;
47589;SDS011;33316;52.298;9.056;2022-11-11T09:30:37;1.05;;;0.63;;
47589;SDS011;33316;52.298;9.056;2022-11-11T09:33:03;2.17;;;0.60;;
47589;SDS011;33316;52.298;9.056;2022-11-11T09:35:32;1.25;;;0.50;;
47589;SDS011;33316;52.298;9.056;2022-11-11T09:37:59;1.92;;;0.70;;
47589;SDS011;33316;52.298;9.056;2022-11-11T09:40:27;2.75;;;0.60;;
47589;SDS011;33316;52.298;9.056;2022-11-11T09:43:07;1.48;;;0.55;;
47589;SDS011;33316;52.298;9.056;2022-11-11T09:45:43;2.08;;;0.60;;
47589;SDS011;33316;52.298;9.056;2022-11-11T09:48:24;1.48;;;0.82;;
47589;SDS011;33316;52.298;9.056;2022-11-11T09:51:04;1.25;;;0.43;;
47589;SDS011;33316;52.298;9.056;2022-11-11T09:53:40;1.23;;;0.60;;
47589;SDS011;33316;52.298;9.056;2022-11-11T09:56:10;1.47;;;0.50;;
47589;SDS011;33316;52.298;9.056;2022-11-11T09:58:42;1.33;;;0.32;;
47589;SDS011;33316;52.298;9.056;2022-11-11T10:01:12;0.57;;;0.43;;
47589;SDS011;33316;52.298;9.056;2022-11-11T10:03:43;2.28;;;0.32;;
47589;SDS011;33316;52.298;9.056;2022-11-11T10:06:14;0.75;;;0.45;;
47589;SDS011;33316;52.298;9.056;2022-11-11T10:08:46;3.00;;;0.60;;
47589;SDS011;33316;52.298;9.056;2022-11-11T10:11:17;1.92;;;0.73;;
47589;SDS011;33316;52.298;9.056;2022-11-11T10:13:51;1.98;;;0.50;;
47589;SDS011;33316;52.298;9.056;2022-11-11T10:16:22;0.93;;;0.50;;
47589;SDS011;33316;52.298;9.056;2022-11-11T10:18:57;0.70;;;0.32;;
47589;SDS011;33316;52.298;9.056;2022-11-11T10:21:36;1.20;;;0.30;;
47589;SDS011;33316;52.298;9.056;2022-11-11T10:24:10;0.55;;;0.30;;
47589;SDS011;33316;52.298;9.056;2022-11-11T10:26:41;1.05;;;0.50;;
47589;SDS011;33316;52.298;9.056;2022-11-11T10:29:12;0.45;;;0.32;;
47589;SDS011;33316;52.298;9.056;2022-11-11T10:31:42;0.73;;;0.40;;
47589;SDS011;33316;52.298;9.056;2022-11-11T10:34:11;1.85;;;0.50;;
47589;SDS011;33316;52.298;9.056;2022-11-11T10:36:41;1.38;;;0.50;;
47589;SDS011;33316;52.298;9.056;2022-11-11T10:39:10;0.77;;;0.40;;
47589;SDS011;33316;52.298;9.056;2022-11-11T10:41:42;1.00;;;0.35;;
47589;SDS011;33316;52.298;9.056;2022-11-11T10:44:19;1.55;;;0.40;;
47589;SDS011;33316;52.298;9.056;2022-11-11T10:46:50;2.25;;;0.40;;
47589;SDS011;33316;52.298;9.056;2022-11-11T10:49:24;1.75;;;0.45;;
47589;SDS011;33316;52.298;9.056;2022-11-11T10:51:58;1.38;;;0.40;;
47589;SDS011;33316;52.298;9.056;2022-11-11T10:54:31;1.33;;;0.52;;
47589;SDS011;33316;52.298;9.056;2022-11-11T10:57:05;0.85;;;0.40;;
47589;SDS011;33316;52.298;9.056;2022-11-11T10:59:38;0.77;;;0.38;;
47589;SDS011;33316;52.298;9.056;2022-11-11T11:02:12;0.73;;;0.30;;
47589;SDS011;33316;52.298;9.056;2022-11-11T11:04:45;1.15;;;0.40;;
47589;SDS011;33316;52.298;9.056;2022-11-11T11:07:18;2.08;;;0.50;;
47589;SDS011;33316;52.298;9.056;2022-11-11T11:09:52;2.05;;;0.40;;
47589;SDS011;33316;52.298;9.056;2022-11-11T11:12:23;3.30;;;0.50;;
47589;SDS011;33316;52.298;9.056;2022-11-11T11:14:58;1.42;;;0.45;;
47589;SDS011;33316;52.298;9.056;2022-11-11T11:17:31;1.33;;;0.40;;
47589;SDS011;33316;52.298;9.056;2022-11-11T11:20:11;2.28;;;0.40;;
47589;SDS011;33316;52.298;9.056;2022-11-11T11:22:45;1.42;;;0.50;;
47589;SDS011;33316;52.298;9.056;2022-11-11T11:25:14;2.05;;;0.38;;
47589;SDS011;33316;52.298;9.056;2022-11-11T11:27:42;1.65;;;0.50;;
47589;SDS011;33316;52.298;9.056;2022-11-11T11:30:10;1.77;;;0.50;;
47589;SDS011;33316;52.298;9.056;2022-11-11T11:32:39;1.27;;;0.32;;
47589;SDS011;33316;52.298;9.056;2022-11-11T11:35:08;0.82;;;0.35;;
47589;SDS011;33316;52.298;9.056;2022-11-11T11:37:48;1.33;;;0.38;;
47589;SDS011;33316;52.298;9.056;2022-11-11T11:42:42;2.08;;;0.30;;
47589;SDS011;33316;52.298;9.056;2022-11-11T11:45:19;1.63;;;0.57;;
47589;SDS011;33316;52.298;9.056;2022-11-11T11:47:50;0.77;;;0.40;;
47589;SDS011;33316;52.298;9.056;2022-11-11T11:50:34;0.85;;;0.40;;
47589;SDS011;33316;52.298;9.056;2022-11-11T11:53:12;0.52;;;0.40;;
47589;SDS011;33316;52.298;9.056;2022-11-11T11:56:03;2.05;;;0.60;;
47589;SDS011;33316;52.298;9.056;2022-11-11T11:58:42;1.90;;;0.50;;
47589;SDS011;33316;52.298;9.056;2022-11-11T12:01:21;1.65;;;0.52;;
47589;SDS011;33316;52.298;9.056;2022-11-11T12:03:58;1.17;;;0.30;;
47589;SDS011;33316;52.298;9.056;2022-11-11T12:06:47;1.77;;;0.40;;
47589;SDS011;33316;52.298;9.056;2022-11-11T12:09:28;0.63;;;0.20;;
47589;SDS011;33316;52.298;9.056;2022-11-11T12:12:04;0.88;;;0.32;;
47589;SDS011;33316;52.298;9.056;2022-11-11T12:14:47;1.88;;;0.35;;
47589;SDS011;33316;52.298;9.056;2022-11-11T12:17:29;0.50;;;0.30;;
47589;SDS011;33316;52.298;9.056;2022-11-11T12:20:03;1.45;;;0.47;;
47589;SDS011;33316;52.298;9.056;2022-11-11T12:22:42;0.40;;;0.30;;
47589;SDS011;33316;52.298;9.056;2022-11-11T12:25:27;2.40;;;0.65;;
47589;SDS011;33316;52.298;9.056;2022-11-11T12:28:03;0.93;;;0.50;;
47589;SDS011;33316;52.298;9.056;2022-11-11T12:30:39;1.58;;;0.47;;
47589;SDS011;33316;52.298;9.056;2022-11-11T12:33:16;2.00;;;0.40;;
47589;SDS011;33316;52.298;9.056;2022-11-11T12:35:59;1.45;;;0.40;;
47589;SDS011;33316;52.298;9.056;2022-11-11T12:38:41;0.60;;;0.27;;
47589;SDS011;33316;52.298;9.056;2022-11-11T12:41:18;1.02;;;0.25;;
47589;SDS011;33316;52.298;9.056;2022-11-11T12:43:52;0.50;;;0.15;;
47589;SDS011;33316;52.298;9.056;2022-11-11T12:46:27;0.85;;;0.30;;
47589;SDS011;33316;52.298;9.056;2022-11-11T12:49:02;1.73;;;0.38;;
47589;SDS011;33316;52.298;9.056;2022-11-11T12:51:44;0.82;;;0.40;;
47589;SDS011;33316;52.298;9.056;2022-11-11T12:54:22;1.48;;;0.40;;
47589;SDS011;33316;52.298;9.056;2022-11-11T12:56:59;1.38;;;0.38;;
47589;SDS011;33316;52.298;9.056;2022-11-11T12:59:37;0.45;;;0.28;;
47589;SDS011;33316;52.298;9.056;2022-11-11T13:02:22;0.80;;;0.28;;
47589;SDS011;33316;52.298;9.056;2022-11-11T13:05:00;1.73;;;0.30;;
47589;SDS011;33316;52.298;9.056;2022-11-11T13:07:44;0.73;;;0.30;;
47589;SDS011;33316;52.298;9.056;2022-11-11T13:10:30;0.77;;;0.35;;
47589;SDS011;33316;52.298;9.056;2022-11-11T13:13:05;0.65;;;0.20;;
47589;SDS011;33316;52.298;9.056;2022-11-11T13:15:48;0.28;;;0.25;;
47589;SDS011;33316;52.298;9.056;2022-11-11T13:18:17;0.98;;;0.30;;
47589;SDS011;33316;52.298;9.056;2022-11-11T13:20:51;0.90;;;0.30;;
47589;SDS011;33316;52.298;9.056;2022-11-11T13:23:22;1.23;;;0.30;;
47589;SDS011;33316;52.298;9.056;2022-11-11T13:25:49;1.42;;;0.20;;
47589;SDS011;33316;52.298;9.056;2022-11-11T13:28:26;1.38;;;0.40;;
47589;SDS011;33316;52.298;9.056;2022-11-11T13:31:00;1.25;;;0.40;;
47589;SDS011;33316;52.298;9.056;2022-11-11T13:33:35;0.50;;;0.20;;
47589;SDS011;33316;52.298;9.056;2022-11-11T13:36:06;2.17;;;0.30;;
47589;SDS011;33316;52.298;9.056;2022-11-11T13:38:36;1.52;;;0.40;;
47589;SDS011;33316;52.298;9.056;2022-11-11T13:41:09;0.63;;;0.30;;
47589;SDS011;33316;52.298;9.056;2022-11-11T13:43:40;1.50;;;0.25;;
47589;SDS011;33316;52.298;9.056;2022-11-11T13:46:26;1.02;;;0.30;;
47589;SDS011;33316;52.298;9.056;2022-11-11T13:48:58;0.38;;;0.10;;
47589;SDS011;33316;52.298;9.056;2022-11-11T13:51:29;0.88;;;0.20;;
47589;SDS011;33316;52.298;9.056;2022-11-11T13:54:01;1.40;;;0.55;;
47589;SDS011;33316;52.298;9.056;2022-11-11T13:56:32;4.00;;;1.80;;
47589;SDS011;33316;52.298;9.056;2022-11-11T13:59:06;2.45;;;0.93;;
47589;SDS011;33316;52.298;9.056;2022-11-11T14:01:42;4.28;;;1.30;;
47589;SDS011;33316;52.298;9.056;2022-11-11T14:04:09;1.73;;;0.70;;
47589;SDS011;33316;52.298;9.056;2022-11-11T14:06:47;0.95;;;0.40;;
47589;SDS011;33316;52.298;9.056;2022-11-11T14:12:21;0.70;;;0.10;;
47589;SDS011;33316;52.298;9.056;2022-11-11T14:15:01;0.70;;;0.30;;
47589;SDS011;33316;52.298;9.056;2022-11-11T14:17:32;1.10;;;0.20;;
47589;SDS011;33316;52.298;9.056;2022-11-11T14:23:15;0.80;;;0.30;;
47589;SDS011;33316;52.298;9.056;2022-11-11T14:25:50;0.68;;;0.30;;
47589;SDS011;33316;52.298;9.056;2022-11-11T14:28:38;0.65;;;0.20;;
47589;SDS011;33316;52.298;9.056;2022-11-11T14:34:18;0.93;;;0.45;;
47589;SDS011;33316;52.298;9.056;2022-11-11T14:36:55;0.75;;;0.40;;
47589;SDS011;33316;52.298;9.056;2022-11-11T14:39:31;1.00;;;0.30;;
47589;SDS011;33316;52.298;9.056;2022-11-11T14:42:03;1.45;;;0.45;;
47589;SDS011;33316;52.298;9.056;2022-11-11T14:44:37;0.68;;;0.40;;
47589;SDS011;33316;52.298;9.056;2022-11-11T14:47:30;0.95;;;0.30;;
47589;SDS011;33316;52.298;9.056;2022-11-11T14:49:58;2.33;;;0.30;;
47589;SDS011;33316;52.298;9.056;2022-11-11T14:52:27;0.30;;;0.20;;
47589;SDS011;33316;52.298;9.056;2022-11-11T14:55:12;1.40;;;0.40;;
47589;SDS011;33316;52.298;9.056;2022-11-11T14:57:44;0.82;;;0.50;;
47589;SDS011;33316;52.298;9.056;2022-11-11T15:00:14;0.40;;;0.20;;
47589;SDS011;33316;52.298;9.056;2022-11-11T15:02:46;0.88;;;0.40;;
47589;SDS011;33316;52.298;9.056;2022-11-11T15:05:17;1.65;;;0.55;;
47589;SDS011;33316;52.298;9.056;2022-11-11T15:08:02;1.33;;;0.50;;
47589;SDS011;33316;52.298;9.056;2022-11-11T15:16:50;1.63;;;0.50;;
47589;SDS011;33316;52.298;9.056;2022-11-11T15:19:28;1.05;;;0.40;;
47589;SDS011;33316;52.298;9.056;2022-11-11T15:22:08;0.82;;;0.30;;
47589;SDS011;33316;52.298;9.056;2022-11-11T15:24:44;0.80;;;0.38;;
47589;SDS011;33316;52.298;9.056;2022-11-11T15:27:25;0.93;;;0.38;;
47589;SDS011;33316;52.298;9.056;2022-11-11T15:30:00;2.72;;;0.38;;
47589;SDS011;33316;52.298;9.056;2022-11-11T15:32:37;2.22;;;0.47;;
47589;SDS011;33316;52.298;9.056;2022-11-11T15:35:25;1.75;;;0.30;;
47589;SDS011;33316;52.298;9.056;2022-11-11T15:37:59;1.48;;;0.30;;
47589;SDS011;33316;52.298;9.056;2022-11-11T15:40:29;1.08;;;0.30;;